Time;durP1;ratioP1;P1;durP2;ratioP2;P2;SDS_P1;SDS_P2;PMS_P1;PMS_P2;Temp;Humidity;BMP_temperature;BMP_pressure;BME280_temperature;BME280_humidity;BME280_pressure;Samples;Min_cycle;Max_cycle;Signal;HPM_P1;HPM_P2
2021/11/06 00:00:05;;;;;;;0.40;0.30;;;9.50;99.90;;;;;;5036877;28;20243;-65
2021/11/06 00:02:30;;;;;;;1.38;1.20;;;9.40;99.90;;;;;;5036731;28;20549;-66
2021/11/06 00:04:56;;;;;;;0.20;0.20;;;9.30;99.90;;;;;;5036597;28;20709;-62
2021/11/06 00:07:22;;;;;;;0.83;0.83;;;9.30;99.90;;;;;;5036123;28;20181;-62
2021/11/06 00:09:47;;;;;;;0.30;0.20;;;9.30;99.90;;;;;;5035830;28;20252;-62
2021/11/06 00:12:13;;;;;;;4.17;0.83;;;9.20;99.90;;;;;;5035555;28;20556;-62
2021/11/06 00:14:39;;;;;;;1.90;0.53;;;9.10;99.90;;;;;;5035971;28;20204;-62
2021/11/06 00:17:04;;;;;;;0.20;0.20;;;9.20;99.90;;;;;;5036294;28;20209;-62
2021/11/06 00:19:30;;;;;;;0.20;0.20;;;9.30;99.90;;;;;;5035933;28;20197;-62
2021/11/06 00:21:56;;;;;;;0.30;0.30;;;9.40;99.90;;;;;;5036210;28;20289;-62
2021/11/06 00:24:21;;;;;;;0.20;0.10;;;9.40;99.90;;;;;;5036166;28;20262;-62
2021/11/06 00:26:51;;;;;;;0.20;0.20;;;9.30;99.90;;;;;;5036016;28;20673;-62
2021/11/06 00:29:18;;;;;;;0.20;0.20;;;9.40;99.90;;;;;;5035677;28;20216;-62
2021/11/06 00:31:43;;;;;;;0.20;0.20;;;9.40;99.90;;;;;;5036106;28;20224;-62
2021/11/06 00:34:17;;;;;;;0.30;0.20;;;9.40;99.90;;;;;;5035964;28;20207;-61
2021/11/06 00:36:43;;;;;;;0.20;0.20;;;9.30;99.90;;;;;;5034749;28;20589;-61
2021/11/06 00:39:08;;;;;;;0.20;0.20;;;9.30;99.90;;;;;;5035658;28;20618;-61
2021/11/06 00:41:34;;;;;;;0.40;0.40;;;9.40;99.90;;;;;;5035648;28;20646;-62
2021/11/06 00:44:00;;;;;;;0.20;0.10;;;9.40;99.90;;;;;;5034626;28;20212;-61
2021/11/06 00:46:26;;;;;;;0.30;0.20;;;9.40;99.90;;;;;;5035653;28;20179;-62
2021/11/06 00:48:51;;;;;;;0.20;0.20;;;9.40;99.90;;;;;;5035329;28;20824;-61
2021/11/06 00:51:17;;;;;;;1.00;0.63;;;9.40;99.90;;;;;;5035559;28;20658;-62
2021/11/06 00:53:43;;;;;;;1.13;0.50;;;9.40;99.90;;;;;;5034527;28;20238;-62
2021/11/06 00:56:09;;;;;;;0.30;0.20;;;9.30;99.90;;;;;;5035508;28;20896;-64
2021/11/06 00:58:35;;;;;;;0.37;0.30;;;9.40;99.90;;;;;;5035243;28;20226;-64
2021/11/06 01:01:00;;;;;;;0.70;0.70;;;9.30;99.90;;;;;;5035465;28;20602;-62
2021/11/06 01:03:27;;;;;;;0.20;0.20;;;9.30;99.90;;;;;;5035403;28;20618;-61
2021/11/06 01:05:52;;;;;;;0.20;0.10;;;9.20;99.90;;;;;;5035435;28;20193;-62
2021/11/06 01:08:18;;;;;;;0.20;0.20;;;9.30;99.90;;;;;;5035177;28;20182;-64
2021/11/06 01:10:44;;;;;;;0.50;0.30;;;9.40;99.90;;;;;;5036101;28;20181;-62
2021/11/06 01:13:11;;;;;;;0.93;0.93;;;9.40;99.90;;;;;;5035753;28;20185;-64
2021/11/06 01:15:37;;;;;;;0.43;0.43;;;9.40;99.90;;;;;;5035336;28;20268;-62
2021/11/06 01:18:03;;;;;;;0.20;0.20;;;9.40;99.90;;;;;;5036287;28;20179;-61
2021/11/06 01:20:28;;;;;;;0.40;0.30;;;9.50;99.90;;;;;;5032731;28;20545;-63
2021/11/06 01:22:54;;;;;;;0.20;0.20;;;9.40;99.90;;;;;;5035553;28;20209;-66
2021/11/06 01:25:20;;;;;;;0.20;0.20;;;9.40;99.90;;;;;;5035077;28;20190;-64
2021/11/06 01:27:47;;;;;;;0.20;0.20;;;9.50;99.90;;;;;;5033952;28;20761;-64
2021/11/06 01:30:14;;;;;;;0.40;0.40;;;9.60;99.90;;;;;;5034645;28;20174;-62
2021/11/06 01:32:44;;;;;;;0.20;0.20;;;9.50;99.90;;;;;;5034755;28;20216;-62
2021/11/06 01:35:09;;;;;;;0.30;0.20;;;9.40;99.90;;;;;;5034503;28;20662;-61
2021/11/06 01:37:35;;;;;;;1.40;0.93;;;9.40;99.90;;;;;;5034633;28;20259;-61
2021/11/06 01:40:02;;;;;;;0.20;0.20;;;9.40;99.90;;;;;;5034460;28;20182;-60
2021/11/06 01:42:28;;;;;;;0.30;0.30;;;9.30;99.90;;;;;;5034543;28;20216;-61
2021/11/06 01:44:53;;;;;;;1.23;1.23;;;9.30;99.90;;;;;;5034436;28;20185;-60
2021/11/06 01:47:19;;;;;;;0.60;0.20;;;9.30;99.90;;;;;;5034510;28;20186;-64
2021/11/06 01:49:45;;;;;;;0.30;0.30;;;9.30;99.90;;;;;;5033982;28;20256;-64
2021/11/06 01:52:11;;;;;;;0.83;0.83;;;9.30;99.90;;;;;;5033286;28;20181;-64
2021/11/06 01:54:36;;;;;;;0.20;0.10;;;9.30;99.90;;;;;;5034739;28;20182;-64
2021/11/06 01:57:02;;;;;;;9.00;0.63;;;9.20;99.90;;;;;;5034473;28;20618;-61
2021/11/06 01:59:29;;;;;;;0.25;0.22;;;9.20;99.90;;;;;;5033696;28;20574;-61
2021/11/06 02:01:56;;;;;;;1.52;1.42;;;9.20;99.90;;;;;;5033901;28;20208;-61
2021/11/06 02:04:21;;;;;;;0.30;0.20;;;9.30;99.90;;;;;;5034019;28;20181;-62
2021/11/06 02:06:47;;;;;;;0.50;0.43;;;9.30;99.90;;;;;;5033987;28;20173;-62
2021/11/06 02:09:13;;;;;;;0.20;0.20;;;9.40;99.90;;;;;;5033782;28;20420;-62
2021/11/06 02:11:39;;;;;;;0.70;0.70;;;9.30;99.90;;;;;;5033659;28;20192;-62
2021/11/06 02:14:05;;;;;;;0.50;0.40;;;9.30;99.90;;;;;;5033869;28;20197;-62
2021/11/06 02:16:32;;;;;;;0.20;0.20;;;9.30;99.90;;;;;;5033894;28;20303;-62
2021/11/06 02:18:58;;;;;;;0.30;0.20;;;9.30;99.90;;;;;;5033663;28;20573;-61
2021/11/06 02:21:24;;;;;;;4.53;0.60;;;9.30;99.90;;;;;;5033590;28;20464;-62
2021/11/06 02:23:50;;;;;;;0.30;0.23;;;9.30;99.90;;;;;;5033937;28;20896;-61
2021/11/06 02:26:18;;;;;;;0.50;0.37;;;9.30;99.90;;;;;;5033779;28;20187;-62
2021/11/06 02:28:49;;;;;;;0.30;0.30;;;9.30;99.90;;;;;;5033570;28;20199;-62
2021/11/06 02:31:15;;;;;;;0.73;0.30;;;9.30;99.90;;;;;;5033384;28;20570;-62
2021/11/06 02:33:41;;;;;;;1.13;0.40;;;9.20;99.90;;;;;;5033836;28;20181;-62
2021/11/06 02:36:07;;;;;;;0.52;0.52;;;9.30;99.90;;;;;;5033613;28;20496;-62
2021/11/06 02:38:33;;;;;;;0.30;0.20;;;9.30;99.90;;;;;;5033356;28;20188;-62
2021/11/06 02:40:59;;;;;;;0.30;0.20;;;9.20;99.90;;;;;;5033616;28;20215;-62
2021/11/06 02:43:25;;;;;;;0.20;0.20;;;9.30;99.90;;;;;;5033500;28;20491;-62
2021/11/06 02:45:50;;;;;;;0.30;0.30;;;9.30;99.90;;;;;;5033603;28;20181;-62
2021/11/06 02:48:16;;;;;;;0.20;0.20;;;9.30;99.90;;;;;;5033297;28;20319;-62
2021/11/06 02:50:42;;;;;;;0.50;0.50;;;9.30;99.90;;;;;;5033514;28;20227;-62
2021/11/06 02:53:07;;;;;;;0.20;0.20;;;9.20;99.90;;;;;;5033651;28;20189;-64
2021/11/06 02:55:33;;;;;;;0.40;0.40;;;9.20;99.90;;;;;;5032492;28;20918;-64
2021/11/06 02:57:59;;;;;;;0.67;0.67;;;9.20;99.90;;;;;;5033236;28;20680;-61
2021/11/06 03:00:27;;;;;;;1.83;0.53;;;9.20;99.90;;;;;;5033729;28;20228;-60
2021/11/06 03:02:54;;;;;;;0.35;0.35;;;9.20;99.90;;;;;;5033320;28;20217;-61
2021/11/06 03:05:19;;;;;;;2.80;0.73;;;9.20;99.90;;;;;;5033317;28;20184;-61
2021/11/06 03:07:45;;;;;;;0.30;0.30;;;9.20;99.90;;;;;;5033308;28;20178;-61
2021/11/06 03:10:13;;;;;;;0.70;0.53;;;9.40;99.90;;;;;;5033113;28;20189;-65
2021/11/06 03:12:39;;;;;;;1.70;1.20;;;9.30;99.90;;;;;;5033088;28;20207;-65
2021/11/06 03:15:06;;;;;;;0.32;0.30;;;9.30;99.90;;;;;;5033284;28;20180;-65
2021/11/06 03:17:31;;;;;;;1.13;0.70;;;9.30;99.90;;;;;;5033273;28;20185;-65
2021/11/06 03:19:57;;;;;;;1.03;0.93;;;9.40;99.90;;;;;;5033003;28;20563;-66
2021/11/06 03:22:23;;;;;;;1.00;0.53;;;9.50;99.90;;;;;;5032262;28;20661;-63
2021/11/06 03:24:48;;;;;;;0.30;0.30;;;9.50;99.90;;;;;;5033781;28;20185;-62
2021/11/06 03:27:14;;;;;;;0.80;0.70;;;9.40;99.90;;;;;;5033207;28;20182;-61
2021/11/06 03:29:40;;;;;;;0.63;0.63;;;9.30;99.90;;;;;;5032976;28;20174;-61
2021/11/06 03:32:07;;;;;;;0.20;0.20;;;9.40;99.90;;;;;;5033203;28;20513;-61
2021/11/06 03:34:34;;;;;;;0.65;0.32;;;9.40;99.90;;;;;;5033166;28;20181;-61
2021/11/06 03:37:00;;;;;;;0.73;0.73;;;9.30;99.90;;;;;;5033159;28;20216;-61
2021/11/06 03:39:26;;;;;;;0.30;0.20;;;9.30;99.90;;;;;;5032667;28;20614;-60
2021/11/06 03:41:51;;;;;;;0.20;0.20;;;9.20;99.90;;;;;;5032948;28;20223;-65
2021/11/06 03:44:17;;;;;;;0.20;0.10;;;9.20;99.90;;;;;;5035775;28;20192;-65
2021/11/06 03:46:43;;;;;;;0.83;0.83;;;9.20;99.90;;;;;;5036740;28;20181;-65
2021/11/06 03:49:09;;;;;;;0.33;0.33;;;9.10;99.90;;;;;;5036380;28;20193;-65
2021/11/06 03:51:35;;;;;;;0.63;0.63;;;9.20;99.90;;;;;;5036559;28;20760;-65
2021/11/06 03:54:01;;;;;;;0.20;0.20;;;9.10;99.90;;;;;;5036768;28;20439;-65
2021/11/06 03:56:27;;;;;;;5.37;2.73;;;9.00;99.90;;;;;;5036615;28;20470;-65
2021/11/06 03:58:53;;;;;;;1.67;1.58;;;9.00;99.90;;;;;;5036596;28;20200;-63
2021/11/06 04:01:19;;;;;;;0.30;0.20;;;8.90;99.90;;;;;;5036467;28;20212;-63
2021/11/06 04:03:44;;;;;;;0.30;0.20;;;8.90;99.90;;;;;;5036269;28;20181;-63
2021/11/06 04:06:10;;;;;;;0.40;0.30;;;8.90;99.90;;;;;;5036395;28;20412;-64
2021/11/06 04:08:36;;;;;;;0.57;0.57;;;8.90;99.90;;;;;;5036126;28;20599;-64
2021/11/06 04:11:02;;;;;;;2.27;1.27;;;9.00;99.90;;;;;;5036295;28;20432;-64
2021/11/06 04:13:28;;;;;;;0.65;0.65;;;9.00;99.90;;;;;;5036118;28;20216;-64
2021/11/06 04:15:53;;;;;;;1.40;1.40;;;9.10;99.90;;;;;;5036268;28;20216;-62
2021/11/06 04:18:19;;;;;;;1.50;1.40;;;9.10;99.90;;;;;;5035956;28;20272;-67
2021/11/06 04:20:45;;;;;;;1.60;1.50;;;9.10;99.90;;;;;;5036049;28;20189;-63
2021/11/06 04:23:11;;;;;;;0.28;0.20;;;9.10;99.90;;;;;;5035993;28;20611;-65
2021/11/06 04:25:37;;;;;;;0.57;0.50;;;9.10;99.90;;;;;;5035994;28;20188;-65
2021/11/06 04:28:03;;;;;;;1.03;0.93;;;9.00;99.90;;;;;;5035778;28;20189;-63
2021/11/06 04:30:28;;;;;;;0.20;0.20;;;8.90;99.90;;;;;;5035943;28;20438;-62
2021/11/06 04:32:54;;;;;;;0.30;0.30;;;8.90;99.90;;;;;;5035879;28;20509;-62
2021/11/06 04:35:20;;;;;;;1.90;1.27;;;8.90;99.90;;;;;;5035739;28;20231;-62
2021/11/06 04:37:46;;;;;;;0.60;0.40;;;8.80;99.90;;;;;;5035785;28;20467;-66
2021/11/06 04:40:13;;;;;;;1.83;1.73;;;8.80;99.90;;;;;;5035661;28;20199;-66
2021/11/06 04:42:40;;;;;;;0.55;0.55;;;8.70;99.90;;;;;;5035894;28;20390;-66
2021/11/06 04:45:07;;;;;;;0.50;0.50;;;8.60;99.90;;;;;;5035676;28;20283;-66
2021/11/06 04:47:32;;;;;;;0.40;0.40;;;8.60;99.90;;;;;;5035557;28;20597;-66
2021/11/06 04:49:58;;;;;;;0.20;0.20;;;8.70;99.90;;;;;;5017861;28;20217;-66
2021/11/06 04:52:24;;;;;;;4.50;2.37;;;8.70;99.90;;;;;;5035515;28;20271;-66
2021/11/06 04:54:50;;;;;;;0.30;0.23;;;8.80;99.90;;;;;;5035360;28;20454;-66
2021/11/06 04:57:16;;;;;;;0.77;0.73;;;8.70;99.90;;;;;;5035607;28;20177;-67
2021/11/06 04:59:41;;;;;;;0.50;0.50;;;8.70;99.90;;;;;;5035172;28;20191;-66
2021/11/06 05:02:07;;;;;;;0.20;0.20;;;8.80;99.90;;;;;;5035409;28;20243;-66
2021/11/06 05:04:33;;;;;;;1.53;1.43;;;8.70;99.90;;;;;;5035297;28;20518;-62
2021/11/06 05:06:59;;;;;;;0.88;0.88;;;8.60;99.90;;;;;;5035236;28;20250;-62
2021/11/06 05:09:24;;;;;;;0.30;0.20;;;8.60;99.90;;;;;;5034982;28;20188;-63
2021/11/06 05:11:50;;;;;;;0.93;0.57;;;8.60;99.90;;;;;;5035152;28;20182;-63
2021/11/06 05:14:16;;;;;;;1.03;1.03;;;8.60;99.90;;;;;;5033983;28;20196;-61
2021/11/06 05:16:41;;;;;;;3.33;2.92;;;8.60;99.90;;;;;;5034921;28;20650;-61
2021/11/06 05:19:07;;;;;;;1.27;1.17;;;8.60;99.90;;;;;;5034667;28;20206;-61
2021/11/06 05:21:37;;;;;;;0.20;0.20;;;8.60;99.90;;;;;;5034731;28;20217;-61
2021/11/06 05:24:04;;;;;;;1.25;1.15;;;8.70;99.90;;;;;;5034746;28;20177;-61
2021/11/06 05:26:30;;;;;;;0.40;0.40;;;8.60;99.90;;;;;;5034824;28;20184;-61
2021/11/06 05:28:56;;;;;;;0.30;0.30;;;8.70;99.90;;;;;;5034409;28;20268;-61
2021/11/06 05:31:22;;;;;;;1.15;1.05;;;8.70;99.90;;;;;;5034614;28;20382;-61
2021/11/06 05:33:47;;;;;;;0.70;0.63;;;8.70;99.90;;;;;;5034505;28;20315;-61
2021/11/06 05:36:13;;;;;;;1.07;1.00;;;8.70;99.90;;;;;;5034597;28;20432;-61
2021/11/06 05:38:39;;;;;;;4.17;2.50;;;8.70;99.90;;;;;;5034217;28;20652;-61
2021/11/06 05:41:05;;;;;;;0.93;0.57;;;8.70;99.90;;;;;;5034382;28;20209;-61
2021/11/06 05:43:31;;;;;;;0.80;0.80;;;8.70;99.90;;;;;;5034427;28;20177;-61
2021/11/06 05:45:56;;;;;;;1.07;1.07;;;8.70;99.90;;;;;;5034348;28;20204;-61
2021/11/06 05:48:22;;;;;;;3.03;2.80;;;8.70;99.90;;;;;;5033100;28;20639;-61
2021/11/06 05:50:48;;;;;;;1.67;1.20;;;8.70;99.90;;;;;;5034291;28;20185;-61
2021/11/06 05:53:14;;;;;;;1.87;1.77;;;8.60;99.90;;;;;;5034221;28;20186;-61
2021/11/06 05:55:39;;;;;;;0.60;0.60;;;8.70;99.90;;;;;;5034328;28;20180;-62
2021/11/06 05:58:05;;;;;;;3.23;1.80;;;8.80;99.90;;;;;;5033913;28;20607;-62
2021/11/06 06:00:30;;;;;;;1.77;1.67;;;8.70;99.90;;;;;;5034006;28;20196;-62
2021/11/06 06:02:56;;;;;;;0.30;0.30;;;8.60;99.90;;;;;;5033955;28;20296;-62
2021/11/06 06:05:22;;;;;;;0.30;0.20;;;8.70;99.90;;;;;;5033636;28;20235;-62
2021/11/06 06:07:47;;;;;;;1.30;1.20;;;8.70;99.90;;;;;;5033988;28;20181;-63
2021/11/06 06:10:15;;;;;;;1.70;1.57;;;8.70;99.90;;;;;;5033919;28;20261;-62
2021/11/06 06:12:41;;;;;;;0.95;0.95;;;8.70;99.90;;;;;;5033812;28;20889;-62
2021/11/06 06:15:07;;;;;;;0.93;0.93;;;8.70;99.90;;;;;;5034042;28;20238;-61
2021/11/06 06:17:32;;;;;;;1.17;1.17;;;8.70;99.90;;;;;;5033719;28;20626;-61
2021/11/06 06:19:58;;;;;;;0.53;0.53;;;8.70;99.90;;;;;;5033535;28;20478;-61
2021/11/06 06:22:24;;;;;;;1.00;0.80;;;8.80;99.90;;;;;;5033696;28;20231;-61
2021/11/06 06:24:51;;;;;;;0.63;0.50;;;8.80;99.90;;;;;;5033672;28;20204;-62
2021/11/06 06:27:16;;;;;;;3.80;3.60;;;8.80;99.90;;;;;;5032847;28;20437;-62
2021/11/06 06:29:42;;;;;;;0.20;0.20;;;8.70;99.90;;;;;;5033410;28;20177;-65
2021/11/06 06:32:08;;;;;;;5.20;2.57;;;8.80;99.90;;;;;;5033389;28;20456;-64
2021/11/06 06:34:33;;;;;;;0.80;0.63;;;8.70;99.90;;;;;;5033475;28;20627;-65
2021/11/06 06:36:59;;;;;;;0.30;0.30;;;8.80;99.90;;;;;;5033546;28;20234;-64
2021/11/06 06:39:24;;;;;;;1.17;0.50;;;8.80;99.90;;;;;;5033285;28;20192;-65
2021/11/06 06:41:50;;;;;;;0.50;0.50;;;8.80;99.90;;;;;;5033597;28;20213;-65
2021/11/06 06:44:16;;;;;;;1.83;1.70;;;8.90;99.90;;;;;;5033569;28;20187;-65
2021/11/06 06:46:41;;;;;;;2.67;2.47;;;8.90;99.90;;;;;;5033484;28;20265;-65
2021/11/06 06:49:07;;;;;;;4.47;3.60;;;8.80;99.90;;;;;;5033200;28;20208;-64
2021/11/06 06:51:32;;;;;;;2.53;1.90;;;8.80;99.90;;;;;;5033294;28;20189;-65
2021/11/06 06:53:58;;;;;;;2.00;1.07;;;8.90;99.90;;;;;;5033473;28;20169;-65
2021/11/06 06:56:23;;;;;;;2.97;2.67;;;9.00;99.90;;;;;;5033410;28;20180;-64
2021/11/06 06:58:49;;;;;;;0.30;0.30;;;8.90;99.90;;;;;;5033206;28;20191;-64
2021/11/06 07:01:14;;;;;;;0.50;0.50;;;8.90;99.90;;;;;;5033232;28;20201;-65
2021/11/06 07:03:40;;;;;;;2.80;2.57;;;9.00;99.90;;;;;;5033329;28;20165;-65
2021/11/06 07:06:06;;;;;;;3.23;2.93;;;8.90;99.90;;;;;;5032093;28;20180;-65
2021/11/06 07:08:31;;;;;;;1.70;1.03;;;8.80;99.90;;;;;;5030957;28;20595;-65
2021/11/06 07:10:57;;;;;;;2.67;1.93;;;8.90;99.90;;;;;;5023907;28;20323;-65
2021/11/06 07:13:24;;;;;;;2.00;1.87;;;9.00;99.90;;;;;;5033015;28;20331;-65
2021/11/06 07:15:50;;;;;;;0.90;0.90;;;9.00;99.90;;;;;;5031613;28;20181;-65
2021/11/06 07:18:16;;;;;;;2.90;1.58;;;9.00;99.90;;;;;;5030346;28;20549;-65
2021/11/06 07:20:42;;;;;;;0.20;0.20;;;9.10;99.90;;;;;;5035005;28;20301;-65
2021/11/06 07:23:08;;;;;;;6.50;4.05;;;9.30;99.90;;;;;;5034003;28;20670;-65
2021/11/06 07:25:34;;;;;;;1.65;1.55;;;9.40;99.90;;;;;;5037058;28;20181;-64
2021/11/06 07:28:00;;;;;;;2.27;2.17;;;9.30;99.90;;;;;;5036823;28;20572;-65
2021/11/06 07:30:26;;;;;;;0.22;0.17;;;9.40;99.90;;;;;;5036133;28;20451;-67
2021/11/06 07:32:52;;;;;;;6.18;3.58;;;9.60;99.90;;;;;;5031391;28;20229;-67
2021/11/06 07:35:18;;;;;;;0.30;0.20;;;9.50;99.90;;;;;;5036713;28;20613;-66
2021/11/06 07:37:44;;;;;;;1.65;1.40;;;9.60;99.90;;;;;;5036703;28;20189;-67
2021/11/06 07:40:12;;;;;;;2.10;2.00;;;9.70;99.90;;;;;;5033552;28;20185;-67
2021/11/06 07:42:39;;;;;;;2.13;1.90;;;9.90;99.90;;;;;;5036729;28;20654;-66
2021/11/06 07:45:06;;;;;;;1.83;1.73;;;10.00;99.90;;;;;;5036753;28;20192;-66
2021/11/06 07:47:32;;;;;;;1.17;1.17;;;10.00;99.90;;;;;;5036592;28;20617;-69
2021/11/06 07:49:57;;;;;;;5.63;3.93;;;9.90;99.90;;;;;;5036303;28;20289;-64
2021/11/06 07:52:23;;;;;;;4.93;4.53;;;10.00;99.90;;;;;;5036722;28;20185;-64
2021/11/06 07:54:48;;;;;;;0.80;0.77;;;9.90;99.90;;;;;;5037074;28;20200;-67
2021/11/06 07:57:14;;;;;;;2.13;1.97;;;9.90;99.90;;;;;;5036456;28;20602;-67
2021/11/06 07:59:40;;;;;;;0.37;0.37;;;9.90;99.90;;;;;;5036420;28;20189;-67
2021/11/06 08:02:05;;;;;;;3.17;1.80;;;10.10;99.90;;;;;;5028876;28;20296;-67
2021/11/06 08:04:31;;;;;;;3.27;1.40;;;10.20;99.90;;;;;;5027091;28;20174;-67
2021/11/06 08:06:57;;;;;;;6.40;4.07;;;10.10;99.90;;;;;;5035934;28;20480;-68
2021/11/06 08:09:22;;;;;;;4.30;2.73;;;10.00;99.90;;;;;;5035905;28;20639;-68
2021/11/06 08:11:48;;;;;;;4.83;3.30;;;10.00;99.90;;;;;;5036038;28;20392;-67
2021/11/06 08:14:13;;;;;;;0.47;0.47;;;9.90;99.90;;;;;;5035942;28;20200;-67
2021/11/06 08:16:39;;;;;;;1.23;1.10;;;10.00;99.90;;;;;;5036695;28;20189;-67
2021/11/06 08:19:04;;;;;;;6.60;2.90;;;10.00;99.90;;;;;;5035897;28;20500;-68
2021/11/06 08:21:30;;;;;;;13.50;10.97;;;10.00;99.90;;;;;;5035892;28;20634;-68
2021/11/06 08:23:55;;;;;;;3.03;2.83;;;10.10;99.90;;;;;;5036156;28;20185;-65
2021/11/06 08:26:21;;;;;;;1.73;1.63;;;10.10;99.90;;;;;;5036049;28;20191;-68
2021/11/06 08:28:47;;;;;;;5.20;4.80;;;10.20;99.90;;;;;;5035237;28;20181;-64
2021/11/06 08:31:12;;;;;;;2.47;1.70;;;10.10;99.90;;;;;;5035525;28;20178;-64
2021/11/06 08:33:38;;;;;;;2.40;2.20;;;10.20;99.90;;;;;;5035855;28;20181;-63
2021/11/06 08:36:03;;;;;;;4.50;4.10;;;10.30;99.90;;;;;;5035535;28;20251;-64
2021/11/06 08:38:32;;;;;;;3.33;3.07;;;10.40;99.90;;;;;;5035844;28;20583;-64
2021/11/06 08:40:58;;;;;;;6.38;4.43;;;10.40;99.90;;;;;;5036182;28;20512;-64
2021/11/06 08:43:26;;;;;;;3.80;2.67;;;10.30;99.90;;;;;;5035825;28;20359;-64
2021/11/06 08:45:51;;;;;;;5.65;4.80;;;10.40;99.90;;;;;;5036188;28;20216;-68
2021/11/06 08:48:17;;;;;;;5.93;4.47;;;10.40;99.90;;;;;;5029246;28;20205;-65
2021/11/06 08:50:43;;;;;;;0.40;0.40;;;10.30;99.90;;;;;;5032564;28;20686;-68
2021/11/06 08:53:09;;;;;;;2.00;1.80;;;10.40;99.90;;;;;;5026907;28;20186;-67
2021/11/06 08:55:35;;;;;;;6.17;5.50;;;10.30;99.90;;;;;;5027027;28;20855;-68
2021/11/06 08:58:01;;;;;;;1.27;1.23;;;10.40;99.90;;;;;;5030597;28;20204;-64
2021/11/06 09:00:34;;;;;;;5.43;4.68;;;10.50;99.90;;;;;;5034582;28;20618;-65
2021/11/06 09:03:03;;;;;;;0.90;0.90;;;10.60;99.90;;;;;;5035440;28;20602;-64
2021/11/06 09:05:30;;;;;;;2.13;2.00;;;10.40;99.90;;;;;;5035569;28;20174;-63
2021/11/06 09:07:57;;;;;;;6.57;5.75;;;10.60;99.90;;;;;;5035262;28;20211;-64
2021/11/06 09:10:22;;;;;;;3.72;3.33;;;10.80;99.90;;;;;;5035714;28;20488;-64
2021/11/06 09:12:49;;;;;;;3.37;3.17;;;10.80;99.90;;;;;;5035614;28;20258;-66
2021/11/06 09:15:15;;;;;;;2.97;2.13;;;11.00;99.90;;;;;;5034200;28;20525;-67
2021/11/06 09:17:41;;;;;;;3.05;1.75;;;10.80;99.90;;;;;;5034989;28;20646;-68
2021/11/06 09:20:07;;;;;;;1.17;1.17;;;11.10;99.90;;;;;;5035003;28;20181;-67
2021/11/06 09:22:34;;;;;;;2.10;1.50;;;11.30;99.90;;;;;;5035367;28;20231;-66
2021/11/06 09:24:59;;;;;;;0.75;0.75;;;11.50;57.70;;;;;;5034901;28;20186;-64
2021/11/06 09:27:25;;;;;;;6.43;3.23;;;11.50;1.00;;;;;;5034829;28;20235;-64
2021/11/06 09:29:51;;;;;;;8.37;7.57;;;11.60;1.00;;;;;;5034429;28;20174;-63
2021/11/06 09:32:17;;;;;;;5.50;4.63;;;11.40;1.00;;;;;;5034798;28;20430;-65
2021/11/06 09:34:43;;;;;;;1.17;1.17;;;11.30;1.00;;;;;;5035150;28;20185;-66
2021/11/06 09:37:08;;;;;;;0.60;0.60;;;11.20;41.00;;;;;;5034674;28;20898;-67
2021/11/06 09:39:35;;;;;;;3.30;3.00;;;11.30;90.40;;;;;;5034103;28;20193;-63
2021/11/06 09:42:02;;;;;;;1.58;1.48;;;11.60;36.80;;;;;;5033576;28;20463;-67
2021/11/06 09:44:30;;;;;;;3.78;3.47;;;11.50;1.00;;;;;;5034360;28;20236;-67
2021/11/06 09:46:57;;;;;;;1.95;1.85;;;11.60;1.00;;;;;;5034075;28;20262;-67
2021/11/06 09:49:23;;;;;;;1.02;1.02;;;11.40;1.00;;;;;;5034502;28;20181;-67
2021/11/06 09:51:48;;;;;;;1.10;1.10;;;11.40;1.00;;;;;;5034223;28;20514;-64
2021/11/06 09:54:14;;;;;;;1.80;1.70;;;11.40;8.40;;;;;;5034353;28;20247;-63
2021/11/06 09:56:40;;;;;;;4.13;3.70;;;11.60;16.10;;;;;;5033304;28;20181;-63
2021/11/06 09:59:06;;;;;;;3.70;2.00;;;11.60;1.00;;;;;;5034176;28;20181;-67
2021/11/06 10:01:33;;;;;;;1.20;1.05;;;11.60;1.00;;;;;;5034495;28;20280;-64
2021/11/06 10:04:08;;;;;;;1.88;1.15;;;11.50;1.00;;;;;;5034156;28;20180;-65
2021/11/06 10:06:37;;;;;;;2.15;1.48;;;11.50;15.70;;;;;;5034292;28;20191;-66
2021/11/06 10:09:11;;;;;;;2.13;2.03;;;11.80;1.00;;;;;;5034260;28;20224;-65
2021/11/06 10:18:28;;;;;;;0.45;0.45;;;12.30;1.00;;;;;;5539988;22;20734;-65
2021/11/06 10:21:00;;;;;;;1.25;1.15;;;12.30;1.00;;;;;;5014334;28;20174;-65
2021/11/06 10:23:29;;;;;;;2.42;2.22;;;12.30;1.00;;;;;;5014357;28;20174;-65
2021/11/06 10:26:12;;;;;;;1.77;1.67;;;12.10;1.00;;;;;;4996767;28;20276;-65
2021/11/06 10:28:39;;;;;;;3.05;2.50;;;12.20;1.00;;;;;;5014007;28;20178;-64
2021/11/06 10:31:05;;;;;;;1.00;1.00;;;12.20;1.00;;;;;;5014281;28;20571;-65
2021/11/06 10:33:46;;;;;;;3.45;2.17;;;11.90;1.00;;;;;;5014241;28;20166;-68
2021/11/06 10:36:27;;;;;;;3.20;2.90;;;12.10;1.00;;;;;;4996774;28;20190;-68
2021/11/06 10:39:09;;;;;;;0.88;0.82;;;11.90;1.00;;;;;;4996405;28;20202;-67
2021/11/06 10:41:41;;;;;;;6.57;2.88;;;11.70;1.00;;;;;;5014045;28;20233;-64
2021/11/06 10:44:08;;;;;;;2.05;1.27;;;11.80;1.00;;;;;;4996796;28;20269;-65
2021/11/06 10:46:34;;;;;;;2.60;2.15;;;12.00;1.00;;;;;;5014235;28;20213;-64
2021/11/06 10:49:00;;;;;;;2.93;2.00;;;12.10;1.00;;;;;;4996409;28;20206;-65
2021/11/06 10:51:27;;;;;;;1.13;1.02;;;11.90;1.00;;;;;;5013878;28;20479;-66
2021/11/06 10:54:00;;;;;;;4.90;4.43;;;11.70;1.00;;;;;;4996371;28;20222;-65
2021/11/06 10:56:27;;;;;;;2.05;1.85;;;11.60;1.00;;;;;;5013656;28;20208;-65
2021/11/06 10:59:02;;;;;;;14.32;6.80;;;11.40;10.90;;;;;;5013534;28;20248;-65
2021/11/06 11:01:36;;;;;;;5.90;3.35;;;11.30;41.40;;;;;;5014082;28;20201;-65
2021/11/06 11:04:11;;;;;;;7.32;5.75;;;11.40;99.90;;;;;;4996344;28;20205;-66
2021/11/06 11:06:49;;;;;;;3.30;2.47;;;11.40;86.10;;;;;;5013493;28;20178;-66
2021/11/06 11:09:18;;;;;;;9.25;2.22;;;11.60;73.20;;;;;;4996625;28;20574;-66
2021/11/06 11:11:46;;;;;;;3.22;2.67;;;11.20;57.00;;;;;;5013766;28;20182;-66
2021/11/06 11:14:14;;;;;;;4.97;1.92;;;11.10;99.90;;;;;;5013268;28;20182;-66
2021/11/06 11:16:51;;;;;;;6.72;4.95;;;11.20;99.90;;;;;;5013040;28;20186;-66
2021/11/06 11:19:17;;;;;;;13.25;2.67;;;11.20;99.90;;;;;;5012966;28;20197;-66
2021/11/06 11:21:44;;;;;;;3.40;3.22;;;11.20;99.90;;;;;;5013081;28;20547;-66
2021/11/06 11:24:18;;;;;;;6.07;3.72;;;11.40;99.90;;;;;;5013587;28;20182;-66
2021/11/06 11:26:52;;;;;;;0.60;0.60;;;11.40;99.90;;;;;;5013207;28;20170;-64
2021/11/06 11:29:28;;;;;;;2.70;1.42;;;11.50;90.00;;;;;;5013032;28;20196;-64
2021/11/06 11:31:55;;;;;;;1.38;1.38;;;11.50;54.30;;;;;;5013196;28;20630;-67
2021/11/06 11:34:20;;;;;;;9.07;5.72;;;11.40;29.60;;;;;;5013118;28;20193;-64
2021/11/06 11:36:49;;;;;;;10.97;9.37;;;11.30;78.20;;;;;;5013199;28;20186;-63
2021/11/06 11:39:18;;;;;;;6.05;5.43;;;11.20;91.80;;;;;;5012852;28;20201;-68
2021/11/06 11:42:22;;;;;;;1.15;1.08;;;11.00;99.90;;;;;;5013304;28;20264;-65
2021/11/06 11:44:56;;;;;;;0.40;0.30;;;11.20;99.90;;;;;;5014796;28;20185;-66
2021/11/06 11:47:44;;;;;;;13.82;9.93;;;11.20;99.90;;;;;;5014147;28;20500;-66
2021/11/06 11:50:17;;;;;;;5.40;4.70;;;11.00;99.90;;;;;;5013676;28;20194;-65
2021/11/06 11:52:50;;;;;;;4.53;3.65;;;11.20;99.90;;;;;;4981158;28;20174;-65
2021/11/06 11:55:29;;;;;;;2.22;2.13;;;11.10;99.90;;;;;;5014322;28;20189;-64
2021/11/06 11:58:12;;;;;;;3.53;3.20;;;11.00;99.90;;;;;;5014049;28;20189;-64
2021/11/06 12:00:47;;;;;;;2.10;1.80;;;11.20;99.90;;;;;;5013442;28;20568;-65
2021/11/06 12:03:31;;;;;;;0.30;0.20;;;11.30;99.90;;;;;;4996097;28;20216;-65
2021/11/06 12:05:56;;;;;;;2.58;1.02;;;11.40;99.90;;;;;;4999268;28;20182;-68
2021/11/06 12:08:22;;;;;;;2.37;1.40;;;11.30;85.70;;;;;;5016423;28;20189;-65
2021/11/06 12:10:56;;;;;;;1.13;1.10;;;11.30;74.40;;;;;;5016895;28;20522;-65
2021/11/06 12:13:28;;;;;;;13.43;5.18;;;11.10;96.50;;;;;;5016476;28;20272;-67
2021/11/06 12:16:02;;;;;;;1.75;0.68;;;11.10;99.90;;;;;;5016208;28;20174;-64
2021/11/06 12:18:33;;;;;;;1.05;0.98;;;11.30;99.90;;;;;;5015932;28;20201;-67
2021/11/06 12:21:22;;;;;;;1.88;1.77;;;11.50;92.00;;;;;;5016244;28;20618;-64
2021/11/06 12:24:15;;;;;;;5.97;3.42;;;11.30;41.90;;;;;;5015774;28;20178;-64
2021/11/06 12:26:53;;;;;;;3.33;2.30;;;11.30;92.40;;;;;;5016005;28;20194;-64
2021/11/06 12:29:19;;;;;;;3.65;2.38;;;11.30;99.90;;;;;;5015908;28;20209;-66
2021/11/06 12:31:48;;;;;;;1.00;0.90;;;11.50;79.90;;;;;;5016004;28;20576;-67
2021/11/06 12:34:34;;;;;;;5.50;3.80;;;11.40;51.80;;;;;;5016031;28;20617;-65
2021/11/06 12:37:02;;;;;;;2.08;1.45;;;11.40;83.10;;;;;;5016371;28;20190;-64
2021/11/06 12:39:53;;;;;;;0.30;0.30;;;11.40;66.30;;;;;;5016229;28;20210;-66
2021/11/06 12:42:30;;;;;;;2.30;2.10;;;11.50;53.90;;;;;;4998798;28;20335;-65
2021/11/06 12:45:02;;;;;;;1.80;1.33;;;11.40;56.80;;;;;;5016017;28;20188;-66
2021/11/06 12:47:29;;;;;;;4.65;3.40;;;11.30;84.80;;;;;;5015865;28;20170;-65
2021/11/06 12:49:56;;;;;;;2.78;2.17;;;11.10;99.90;;;;;;5015480;28;20205;-64
2021/11/06 12:52:26;;;;;;;6.53;5.22;;;11.10;99.90;;;;;;5014577;28;20193;-65
2021/11/06 12:55:00;;;;;;;0.93;0.52;;;11.00;99.90;;;;;;5015701;28;20178;-67
2021/11/06 12:57:34;;;;;;;14.05;3.03;;;11.10;99.90;;;;;;5016223;28;20611;-64
2021/11/06 13:00:00;;;;;;;0.77;0.75;;;11.20;99.90;;;;;;5015515;28;20277;-64